Terminal Aerodrome Forecast
Issued by NWS Charleston, WV

Current Version | Previous Version | Graphics & Text | Print | Product List | Glossary On
Versions: 1 2 3 4 5 6 7 8 9 10 11 12 13 14 15 16 17 18 19 20 21 22 23 24
000
FTUS41 KRLX 291700
TAFBKW
TAF
KBKW 291735Z 2918/3018 14007KT P6SM SKC
     FM292300 13005KT P6SM SCT050
     FM300200 14007KT P6SM SCT250
     FM300500 15007KT P6SM BKN050
     FM301400 18009G16KT P6SM SCT080
     FM301700 19006KT P6SM SCT050=

USA.gov is the U.S. government's official web portal to all federal, state and local government web resources and services.